createdAt,value
2019-02-11T00:01:16.338Z,99483.89
2019-02-11T00:03:45.114Z,99498.84
2019-02-11T00:06:14.081Z,99506.03
2019-02-11T00:08:42.981Z,99515.39
2019-02-11T00:11:11.938Z,99519.98
2019-02-11T00:13:40.776Z,99521.92
2019-02-11T00:16:09.997Z,99531.55
2019-02-11T00:18:38.964Z,99536.78
2019-02-11T00:21:08.226Z,99551.63
2019-02-11T00:23:37.086Z,99550.06
2019-02-11T00:26:06.233Z,99564.15
2019-02-11T00:28:35.161Z,99577.50
2019-02-11T00:31:04.040Z,99584.34
2019-02-11T00:33:32.935Z,99587.98
2019-02-11T00:36:01.766Z,99591.72
2019-02-11T00:38:30.932Z,99602.94
2019-02-11T00:40:59.731Z,99603.38
2019-02-11T00:43:28.739Z,99610.25
2019-02-11T00:45:57.756Z,99613.98
2019-02-11T00:48:26.637Z,99616.20
2019-02-11T00:50:55.558Z,99619.57
2019-02-11T00:53:24.461Z,99621.25
2019-02-11T00:55:54.110Z,99625.20
2019-02-11T00:58:22.893Z,99632.88
2019-02-11T01:00:51.848Z,99641.48
2019-02-11T01:03:20.646Z,99654.75
2019-02-11T01:19:12.533Z,99676.02
2019-02-11T01:21:41.399Z,99683.54
2019-02-11T01:24:10.447Z,99666.59
2019-02-11T01:26:39.234Z,99693.09
2019-02-11T01:29:08.226Z,99700.77
2019-02-11T01:31:37.176Z,99709.37
2019-02-11T01:34:06.427Z,99713.31
2019-02-11T01:36:35.327Z,99719.86
2019-02-11T01:39:05.398Z,99717.05
2019-02-11T01:41:34.280Z,99733.14
2019-02-11T01:44:03.244Z,99734.83
2019-02-11T01:46:32.117Z,99740.09
2019-02-11T01:49:01.136Z,99747.94
2019-02-11T01:51:30.118Z,99748.87
2019-02-11T01:53:58.937Z,99749.08
2019-02-11T01:56:27.811Z,99755.16
2019-02-11T01:58:57.149Z,99757.34
2019-02-11T02:01:26.220Z,99760.52
2019-02-11T02:03:55.210Z,99766.41
2019-02-11T02:06:26.450Z,99772.30
2019-02-11T02:08:55.382Z,99776.62
2019-02-11T02:11:24.264Z,99790.28
2019-02-11T02:13:53.243Z,99793.09
2019-02-11T02:16:22.266Z,99798.52
2019-02-11T02:18:51.074Z,99804.41
2019-02-11T02:21:19.879Z,99803.59
2019-02-11T02:23:48.874Z,99800.20
2019-02-11T02:26:17.696Z,99805.65
2019-02-11T02:28:46.630Z,99805.74
2019-02-11T02:31:15.468Z,99807.05
2019-02-11T02:33:44.291Z,99807.42
2019-02-11T02:38:48.362Z,99830.19
2019-02-11T02:54:45.792Z,99845.81
2019-02-11T03:01:37.636Z,99860.22
2019-02-11T03:11:01.572Z,99860.00
2019-02-11T03:19:39.717Z,99875.84
2019-02-11T03:22:09.238Z,99888.77
2019-02-11T03:24:38.075Z,99893.75
2019-02-11T03:27:06.975Z,99900.64
2019-02-11T03:29:35.797Z,99899.23
2019-02-11T03:32:04.691Z,99902.73
2019-02-11T03:34:34.310Z,99911.81
2019-02-11T03:37:03.467Z,99909.72
2019-02-11T03:39:33.471Z,99920.61
2019-02-11T03:42:02.269Z,99924.54
2019-02-11T03:44:31.138Z,99931.09
2019-02-11T03:47:00.181Z,99936.33
2019-02-11T03:49:29.276Z,99939.17
2019-02-11T03:51:58.065Z,99940.39
2019-02-11T03:54:27.089Z,99949.00
2019-02-11T03:56:56.092Z,99956.95
2019-02-11T03:59:24.995Z,99961.27
2019-02-11T04:01:53.898Z,99960.73
2019-02-11T04:04:22.756Z,99976.36
2019-02-11T04:06:51.632Z,99987.13
2019-02-11T04:09:20.452Z,99996.18
2019-02-11T04:11:49.666Z,99994.25
2019-02-11T04:14:24.918Z,99990.78
2019-02-11T04:16:49.819Z,100002.73
2019-02-11T04:19:18.749Z,99994.87
2019-02-11T04:21:47.567Z,100007.35
2019-02-11T04:24:16.370Z,100009.71
2019-02-11T04:26:45.473Z,100001.70
2019-02-11T04:29:14.522Z,100018.45
2019-02-11T04:31:43.362Z,100023.33
2019-02-11T04:34:12.397Z,100024.53
2019-02-11T04:36:41.595Z,100028.00
2019-02-11T04:39:10.640Z,100032.50
2019-02-11T04:41:39.434Z,100039.89
2019-02-11T04:44:09.366Z,100050.18
2019-02-11T04:46:38.216Z,100047.37
2019-02-11T04:49:07.083Z,100055.05
2019-02-11T04:51:36.177Z,100058.23
2019-02-11T04:54:05.080Z,100056.00
2019-02-11T04:56:34.034Z,100067.41
2019-02-11T04:59:03.023Z,100075.59
2019-02-11T05:01:31.912Z,100080.89
2019-02-11T05:04:00.807Z,100089.50
2019-02-11T05:06:29.746Z,100094.78
2019-02-11T05:08:58.811Z,100102.42
2019-02-11T05:11:27.780Z,100106.91
2019-02-11T05:13:57.553Z,100118.80
2019-02-11T05:16:26.337Z,100114.21
2019-02-11T05:18:55.304Z,100126.77
2019-02-11T05:21:24.166Z,100124.55
2019-02-11T05:23:53.159Z,100127.70
2019-02-11T05:26:22.892Z,100125.92
2019-02-11T05:28:52.005Z,100119.13
2019-02-11T05:31:21.016Z,100138.14
2019-02-11T05:33:49.883Z,100137.86
2019-02-11T05:36:18.843Z,100140.80
2019-02-11T05:38:47.871Z,100145.90
2019-02-11T05:41:16.930Z,100139.72
2019-02-11T05:43:46.216Z,100153.91
2019-02-11T05:46:15.079Z,100151.80
2019-02-11T05:48:43.917Z,100160.14
2019-02-11T05:51:12.756Z,100162.76
2019-02-11T05:53:41.580Z,100173.05
2019-02-11T05:56:10.537Z,100162.94
2019-02-11T05:58:39.586Z,100172.48
2019-02-11T06:01:08.429Z,100181.43
2019-02-11T06:03:37.537Z,100172.25
2019-02-11T06:06:06.592Z,100190.55
2019-02-11T06:08:35.401Z,100195.23
2019-02-11T06:11:04.320Z,100205.25
2019-02-11T06:13:33.477Z,100206.86
2019-02-11T06:16:02.659Z,100214.25
2019-02-11T06:18:31.914Z,100227.36
2019-02-11T06:21:00.791Z,100226.28
2019-02-11T06:23:29.843Z,100230.22
2019-02-11T06:25:58.867Z,100244.78
2019-02-11T06:28:27.876Z,100240.70
2019-02-11T06:32:00.337Z,100254.80
2019-02-11T06:34:29.724Z,100268.38
2019-02-11T06:40:27.416Z,100285.20
2019-02-11T06:42:56.956Z,100295.52
2019-02-11T06:45:25.897Z,100304.14
2019-02-11T06:47:55.264Z,100317.34
2019-02-11T06:50:24.204Z,100312.18
2019-02-11T06:52:53.010Z,100320.97
2019-02-11T06:55:22.227Z,100335.60
2019-02-11T06:57:51.700Z,100335.09
2019-02-11T07:00:23.013Z,100341.02
2019-02-11T07:02:54.199Z,100357.43
2019-02-11T07:05:23.095Z,100357.84
2019-02-11T07:07:52.041Z,100376.95
2019-02-11T07:10:21.226Z,100382.33
2019-02-11T07:12:50.177Z,100392.05
2019-02-11T07:15:22.129Z,100394.84
2019-02-11T07:17:49.749Z,100409.26
2019-02-11T07:20:18.764Z,100398.39
2019-02-11T07:22:47.918Z,100413.19
2019-02-11T07:25:16.851Z,100420.29
2019-02-11T07:27:45.831Z,100427.98
2019-02-11T07:30:15.174Z,100428.75
2019-02-11T07:32:47.293Z,100434.76
2019-02-11T07:35:16.569Z,100441.48
2019-02-11T07:37:45.585Z,100447.81
2019-02-11T07:40:14.950Z,100443.50
2019-02-11T07:42:52.337Z,100448.95
2019-02-11T07:45:30.052Z,100456.28
2019-02-11T07:47:56.048Z,100464.23
2019-02-11T07:50:30.512Z,100471.33
2019-02-11T07:52:59.357Z,100474.95
2019-02-11T07:55:28.295Z,100473.78
2019-02-11T07:57:57.693Z,100478.95
2019-02-11T08:00:26.572Z,100491.29
2019-02-11T08:02:55.407Z,100488.20
2019-02-11T08:05:24.331Z,100506.73
2019-02-11T08:07:53.549Z,100514.90
2019-02-11T08:10:22.570Z,100517.30
2019-02-11T08:12:52.294Z,100512.53
2019-02-11T08:15:21.325Z,100516.69
2019-02-11T08:17:50.314Z,100514.69
2019-02-11T08:20:19.233Z,100517.91
2019-02-11T08:22:48.017Z,100527.24
2019-02-11T08:25:16.802Z,100531.20
2019-02-11T08:27:45.754Z,100527.27
2019-02-11T08:30:14.734Z,100527.73
2019-02-11T08:32:43.706Z,100541.32
2019-02-11T08:35:12.773Z,100538.31
2019-02-11T08:37:41.697Z,100544.03
2019-02-11T08:40:10.757Z,100548.05
2019-02-11T08:42:39.695Z,100548.13
2019-02-11T08:45:08.815Z,100544.20
2019-02-11T08:47:38.316Z,100545.64
2019-02-11T08:50:07.517Z,100551.90
2019-02-11T08:52:36.524Z,100561.08
2019-02-11T08:55:05.669Z,100563.02
2019-02-11T08:57:34.630Z,100584.02
2019-02-11T09:00:03.598Z,100585.16
2019-02-11T09:02:34.225Z,100599.50
2019-02-11T09:05:03.272Z,100602.56
2019-02-11T09:07:32.051Z,100610.05
2019-02-11T09:10:00.935Z,100616.61
2019-02-11T09:12:30.113Z,100621.34
2019-02-11T09:14:59.032Z,100633.77
2019-02-11T09:17:28.497Z,100633.08
2019-02-11T09:19:57.300Z,100636.98
2019-02-11T09:22:26.093Z,100642.02
2019-02-11T09:24:54.981Z,100646.29
2019-02-11T09:27:23.763Z,100658.16
2019-02-11T09:29:52.721Z,100674.33
2019-02-11T09:32:21.602Z,100679.58
2019-02-11T09:34:50.600Z,100678.64
2019-02-11T09:37:19.712Z,100675.51
2019-02-11T09:39:50.031Z,100690.41
2019-02-11T09:42:19.075Z,100688.84
2019-02-11T09:44:47.967Z,100701.30
2019-02-11T09:47:16.894Z,100715.66
2019-02-11T09:49:52.610Z,100711.41
2019-02-11T09:52:21.562Z,100733.24
2019-02-11T09:54:50.508Z,100732.55
2019-02-11T09:57:19.344Z,100742.75
2019-02-11T09:59:48.288Z,100741.39
2019-02-11T10:02:17.333Z,100748.68
2019-02-11T10:04:46.925Z,100748.42
2019-02-11T10:07:15.785Z,100764.02
2019-02-11T10:09:44.576Z,100761.59
2019-02-11T10:12:21.101Z,100774.15
2019-02-11T10:14:44.182Z,100787.70
2019-02-11T10:17:13.247Z,100759.98
2019-02-11T10:19:42.320Z,100790.80
2019-02-11T10:22:11.355Z,100800.61
2019-02-11T10:24:40.226Z,100802.20
2019-02-11T10:27:09.125Z,100811.09
2019-02-11T10:29:38.137Z,100819.43
2019-02-11T10:32:07.408Z,100818.98
2019-02-11T10:34:36.218Z,100830.69
2019-02-11T10:37:05.127Z,100834.44
2019-02-11T10:39:34.034Z,100846.10
2019-02-11T10:42:02.969Z,100852.23
2019-02-11T10:44:31.836Z,100862.81
2019-02-11T10:47:00.719Z,100871.09
2019-02-11T10:49:29.861Z,100874.84
2019-02-11T10:51:58.765Z,100878.48
2019-02-11T10:54:27.974Z,100876.45
2019-02-11T10:56:57.082Z,100884.41
2019-02-11T10:59:26.290Z,100887.98
2019-02-11T11:01:55.245Z,100891.26
2019-02-11T11:04:24.094Z,100898.34
2019-02-11T11:06:53.464Z,100899.79
2019-02-11T11:09:22.557Z,100905.38
2019-02-11T11:11:51.619Z,100907.84
2019-02-11T11:14:20.403Z,100918.99
2019-02-11T11:16:49.693Z,100920.05
2019-02-11T11:19:18.742Z,100926.55
2019-02-11T11:21:47.910Z,100921.67
2019-02-11T11:24:16.786Z,100935.62
2019-02-11T11:26:45.589Z,100930.66
2019-02-11T11:29:14.463Z,100948.31
2019-02-11T11:31:43.590Z,100948.98
2019-02-11T11:34:13.145Z,100962.58
2019-02-11T11:36:41.969Z,100976.29
2019-02-11T11:39:19.306Z,100976.21
2019-02-11T11:41:48.380Z,100982.23
2019-02-11T11:44:17.256Z,100979.69
2019-02-11T11:46:47.289Z,100983.07
2019-02-11T11:49:16.227Z,100998.17
2019-02-11T11:51:45.031Z,100994.55
2019-02-11T11:54:13.999Z,101011.65
2019-02-11T11:56:42.985Z,101000.42
2019-02-11T11:59:11.774Z,101014.23
2019-02-11T12:01:41.066Z,101023.49
2019-02-11T12:04:10.085Z,101031.23
2019-02-11T12:06:39.182Z,101032.30
2019-02-11T12:09:08.063Z,101041.30
2019-02-11T12:11:36.999Z,101047.48
2019-02-11T12:14:06.221Z,101045.23
2019-02-11T12:16:35.208Z,101055.03
2019-02-11T12:19:04.176Z,101051.62
2019-02-11T12:21:33.649Z,101055.08
2019-02-11T12:24:02.725Z,101065.52
2019-02-11T12:26:31.864Z,101068.52
2019-02-11T12:29:00.798Z,101074.98
2019-02-11T12:31:29.924Z,101078.14
2019-02-11T12:33:59.761Z,101075.84
2019-02-11T12:36:28.588Z,101081.77
2019-02-11T12:38:57.487Z,101095.77
2019-02-11T12:41:26.846Z,101104.88
2019-02-11T12:43:55.672Z,101108.63
2019-02-11T12:46:24.492Z,101122.06
2019-02-11T12:48:53.356Z,101117.55
2019-02-11T12:51:22.267Z,101131.24
2019-02-11T12:53:51.410Z,101144.85
2019-02-11T12:56:20.608Z,101139.20
2019-02-11T12:58:49.687Z,101145.20
2019-02-11T13:01:18.770Z,101154.28
2019-02-11T13:03:47.579Z,101172.05
2019-02-11T13:06:16.621Z,101173.83
2019-02-11T13:08:45.629Z,101154.81
2019-02-11T13:11:15.014Z,101192.67
2019-02-11T13:13:43.980Z,101183.91
2019-02-11T13:16:13.327Z,101191.89
2019-02-11T13:18:42.500Z,101101.48
2019-02-11T13:21:11.731Z,101210.55
2019-02-11T13:23:40.662Z,101209.50
2019-02-11T13:26:09.777Z,101229.58
2019-02-11T13:28:38.615Z,101234.20
2019-02-11T13:31:07.716Z,101231.19
2019-02-11T13:33:36.572Z,101246.28
2019-02-11T13:36:05.761Z,101243.98
2019-02-11T13:38:34.736Z,101242.73
2019-02-11T13:41:09.709Z,101246.91
2019-02-11T13:43:39.188Z,101259.53
2019-02-11T13:46:08.128Z,101263.58
2019-02-11T13:48:37.194Z,101263.77
2019-02-11T13:51:06.184Z,101270.92
2019-02-11T13:57:16.123Z,101278.97
2019-02-11T13:59:45.072Z,101302.89
2019-02-11T14:02:14.630Z,101313.27
2019-02-11T14:04:43.813Z,101319.95
2019-02-11T14:07:13.121Z,101325.47
2019-02-11T14:09:42.075Z,101317.69
2019-02-11T14:12:10.906Z,101330.80
2019-02-11T14:14:39.723Z,101344.95
2019-02-11T14:17:08.696Z,101351.83
2019-02-11T14:19:37.493Z,101363.03
2019-02-11T14:22:06.552Z,101359.18
2019-02-11T14:24:35.487Z,101373.94
2019-02-11T14:27:04.501Z,101370.38
2019-02-11T14:29:33.481Z,101374.83
2019-02-11T14:32:02.918Z,101382.31
2019-02-11T14:34:32.057Z,101385.36
2019-02-11T14:37:00.999Z,101393.21
2019-02-11T14:42:24.263Z,101406.98
2019-02-11T14:44:53.117Z,101420.84
2019-02-11T14:47:22.103Z,101431.55
2019-02-11T14:49:53.641Z,101430.51
2019-02-11T14:52:22.518Z,101429.83
2019-02-11T14:54:52.224Z,101444.14
2019-02-11T14:57:21.125Z,101452.42
2019-02-11T14:59:49.989Z,101460.45
2019-02-11T15:02:18.825Z,101464.00
2019-02-11T15:04:47.853Z,101463.55
2019-02-11T15:07:16.823Z,101464.37
2019-02-11T15:09:45.675Z,101468.32
2019-02-11T15:12:14.794Z,101473.94
2019-02-11T15:14:43.790Z,101488.66
2019-02-11T15:17:12.933Z,101495.95
2019-02-11T15:19:42.177Z,101495.27
2019-02-11T15:22:11.088Z,101500.19
2019-02-11T15:24:39.843Z,101501.16
2019-02-11T15:27:16.876Z,101510.02
2019-02-11T15:29:39.302Z,101519.79
2019-02-11T15:32:08.213Z,101514.42
2019-02-11T15:34:37.304Z,101529.15
2019-02-11T15:37:06.106Z,101533.91
2019-02-11T15:39:35.124Z,101539.08
2019-02-11T15:42:04.116Z,101541.92
2019-02-11T15:44:33.010Z,101553.21
2019-02-11T15:47:03.062Z,101548.78
2019-02-11T15:49:31.920Z,101550.92
2019-02-11T15:52:00.706Z,101564.63
2019-02-11T15:54:29.934Z,101574.64
2019-02-11T15:56:58.910Z,101573.92
2019-02-11T15:59:27.865Z,101570.70
2019-02-11T16:01:56.714Z,101582.72
2019-02-11T16:04:25.650Z,101594.64
2019-02-11T16:06:54.991Z,101598.70
2019-02-11T16:09:23.937Z,101601.66
2019-02-11T16:11:55.030Z,101626.44
2019-02-11T16:14:24.393Z,101630.16
2019-02-11T16:16:53.359Z,101641.56
2019-02-11T16:19:22.337Z,101649.72
2019-02-11T16:21:51.418Z,101661.81
2019-02-11T16:24:20.539Z,101672.25
2019-02-11T16:26:49.697Z,101689.91
2019-02-11T16:29:18.652Z,101703.48
2019-02-11T16:31:47.542Z,101713.91
2019-02-11T16:34:17.580Z,101729.41
2019-02-11T16:36:46.416Z,101744.73
2019-02-11T16:39:15.762Z,101743.64
2019-02-11T16:41:45.255Z,101741.97
2019-02-11T16:44:14.251Z,101763.09
2019-02-11T16:46:43.079Z,101768.19
2019-02-11T16:49:12.194Z,101776.77
2019-02-11T16:51:42.497Z,101795.86
2019-02-11T16:54:11.368Z,101792.49
2019-02-11T16:56:40.280Z,101794.80
2019-02-11T16:59:09.520Z,101800.30
2019-02-11T17:01:38.369Z,101805.44
2019-02-11T17:04:07.409Z,101816.67
2019-02-11T17:06:36.306Z,101824.03
2019-02-11T17:09:06.449Z,101835.25
2019-02-11T17:11:35.345Z,101831.16
2019-02-11T17:14:04.439Z,101843.40
2019-02-11T17:16:33.485Z,101845.12
2019-02-11T17:19:09.057Z,101851.80
2019-02-11T17:21:33.207Z,101872.85
2019-02-11T17:24:02.237Z,101872.44
2019-02-11T17:26:31.148Z,101874.08
2019-02-11T17:29:00.083Z,101888.16
2019-02-11T17:31:29.025Z,101884.14
2019-02-11T17:33:57.825Z,101887.17
2019-02-11T17:36:26.697Z,101885.62
2019-02-11T17:38:55.779Z,101876.19
2019-02-11T17:41:25.258Z,101886.58
2019-02-11T17:43:54.319Z,101902.03
2019-02-11T17:46:23.333Z,101908.22
2019-02-11T17:48:52.729Z,101906.30
2019-02-11T17:51:21.673Z,101917.92
2019-02-11T17:56:21.096Z,101936.13
2019-02-11T17:58:49.942Z,101936.13
2019-02-11T18:01:19.083Z,101935.19
2019-02-11T18:03:47.899Z,101949.18
2019-02-11T18:06:17.713Z,101929.09
2019-02-11T18:08:46.751Z,101934.55
2019-02-11T18:11:15.696Z,101941.23
2019-02-11T18:13:44.636Z,101950.26
2019-02-11T18:16:13.621Z,101956.87
2019-02-11T18:18:43.723Z,101960.12
2019-02-11T18:21:13.174Z,101966.04
2019-02-11T18:23:42.214Z,101976.16
2019-02-11T18:26:16.277Z,101974.80
2019-02-11T18:28:45.398Z,101977.30
2019-02-11T18:31:16.753Z,101979.72
2019-02-11T18:33:48.091Z,101991.42
2019-02-11T18:36:18.203Z,101989.22
2019-02-11T18:38:47.069Z,101986.19
2019-02-11T18:41:16.209Z,102002.92
2019-02-11T18:43:47.383Z,102005.66
2019-02-11T18:46:16.211Z,102018.41
2019-02-11T18:48:48.333Z,102022.20
2019-02-11T18:51:17.491Z,102024.96
2019-02-11T18:53:46.309Z,102037.98
2019-02-11T18:56:15.211Z,102038.77
2019-02-11T18:58:44.037Z,102045.47
2019-02-11T19:01:12.997Z,102049.47
2019-02-11T19:03:41.911Z,102057.39
2019-02-11T19:06:10.782Z,102058.14
2019-02-11T19:08:39.696Z,102065.96
2019-02-11T19:11:14.255Z,102072.28
2019-02-11T19:13:43.322Z,102072.62
2019-02-11T19:27:03.527Z,102081.13
2019-02-11T19:29:32.547Z,102087.23
2019-02-11T19:32:13.669Z,102084.78
2019-02-11T19:34:42.581Z,102092.05
2019-02-11T19:37:11.669Z,102095.08
2019-02-11T19:39:40.505Z,102102.97
2019-02-11T19:42:09.363Z,102095.98
2019-02-11T19:44:38.241Z,102093.50
2019-02-11T19:47:07.269Z,102106.55
2019-02-11T19:49:36.134Z,102107.45
2019-02-11T19:52:05.072Z,102114.16
2019-02-11T19:54:34.172Z,102119.77
2019-02-11T19:57:04.805Z,102120.31
2019-02-11T19:59:33.652Z,102119.55
2019-02-11T20:02:07.148Z,102121.59
2019-02-11T20:04:36.380Z,102111.03
2019-02-11T20:07:06.223Z,102114.70
2019-02-11T20:09:38.393Z,102109.56
2019-02-11T20:12:12.369Z,102088.80
2019-02-11T20:14:41.710Z,102104.55
2019-02-11T20:17:10.775Z,102114.47
2019-02-11T20:19:40.008Z,102121.47
2019-02-11T20:22:09.615Z,102129.94
2019-02-11T20:24:40.354Z,102128.98
2019-02-11T20:27:17.682Z,102136.80
2019-02-11T20:29:47.663Z,102130.41
2019-02-11T20:32:17.353Z,102136.15
2019-02-11T20:34:47.613Z,102148.37
2019-02-11T20:37:16.614Z,102155.46
2019-02-11T20:39:47.052Z,102166.17
2019-02-11T20:42:16.662Z,102165.11
2019-02-11T20:44:45.807Z,102169.14
2019-02-11T20:47:15.838Z,102160.75
2019-02-11T20:49:45.388Z,102173.77
2019-02-11T20:52:14.328Z,102173.64
2019-02-11T20:54:43.486Z,102177.36
2019-02-11T20:57:12.731Z,102187.76
2019-02-11T20:59:41.871Z,102192.96
2019-02-11T21:02:11.969Z,102194.01
2019-02-11T21:04:41.258Z,102196.89
2019-02-11T21:07:10.314Z,102197.34
2019-02-11T21:09:39.281Z,102202.06
2019-02-11T21:12:08.633Z,102198.30
2019-02-11T21:14:37.987Z,102202.99
2019-02-11T21:17:07.027Z,102207.08
2019-02-11T21:19:36.084Z,102204.00
2019-02-11T21:22:07.285Z,102208.94
2019-02-11T21:24:36.262Z,102219.69
2019-02-11T21:27:07.951Z,102210.66
2019-02-11T21:29:36.864Z,102225.44
2019-02-11T21:32:06.240Z,102229.67
2019-02-11T21:34:35.722Z,102229.38
2019-02-11T21:37:04.905Z,102230.56
2019-02-11T21:39:35.055Z,102235.66
2019-02-11T21:42:04.441Z,102231.85
2019-02-11T21:44:33.675Z,102239.71
2019-02-11T21:47:03.409Z,102234.14
2019-02-11T21:49:33.908Z,102239.89
2019-02-11T21:52:02.922Z,102241.14
2019-02-11T21:54:31.938Z,102242.11
2019-02-11T21:57:01.106Z,102249.52
2019-02-11T21:59:30.737Z,102253.20
2019-02-11T22:01:59.721Z,102235.14
2019-02-11T22:04:29.115Z,102244.64
2019-02-11T22:07:07.228Z,102267.15
2019-02-11T22:09:36.297Z,102258.66
2019-02-11T22:12:05.838Z,102264.55
2019-02-11T22:14:34.814Z,102268.58
2019-02-11T22:17:04.702Z,102272.40
2019-02-11T22:19:33.994Z,102266.23
2019-02-11T22:22:03.155Z,102272.45
2019-02-11T22:24:32.542Z,102282.91
2019-02-11T22:27:02.774Z,102279.56
2019-02-11T22:29:31.950Z,102272.52
2019-02-11T22:32:00.886Z,102278.09
2019-02-11T22:34:32.115Z,102284.69
2019-02-11T22:37:02.198Z,102284.59
2019-02-11T22:39:31.113Z,102295.63
2019-02-11T22:41:59.937Z,102308.10
2019-02-11T22:44:28.758Z,102302.09
2019-02-11T22:46:57.705Z,102322.84
2019-02-11T22:49:27.595Z,102331.99
2019-02-11T22:51:56.414Z,102315.90
2019-02-11T22:54:25.598Z,102319.03
2019-02-11T22:56:54.435Z,102322.91
2019-02-11T22:59:23.472Z,102323.73
2019-02-11T23:01:52.753Z,102327.31
2019-02-11T23:04:21.840Z,102320.41
2019-02-11T23:06:51.436Z,102308.19
2019-02-11T23:09:20.478Z,102312.63
2019-02-11T23:11:49.882Z,102319.98
2019-02-11T23:14:18.769Z,102326.36
2019-02-11T23:16:48.127Z,102322.95
2019-02-11T23:19:17.061Z,102316.31
2019-02-11T23:21:46.080Z,102311.97
2019-02-11T23:24:15.042Z,102259.78
2019-02-11T23:26:45.627Z,102335.11
2019-02-11T23:29:14.430Z,102342.47
2019-02-11T23:31:46.143Z,102349.41
2019-02-11T23:34:15.057Z,102349.50
2019-02-11T23:36:44.278Z,102348.70
2019-02-11T23:39:17.065Z,102349.63
2019-02-11T23:41:46.387Z,102352.67
2019-02-11T23:44:15.190Z,102345.08
2019-02-11T23:46:44.195Z,102355.66
2019-02-11T23:49:13.087Z,102351.94
2019-02-11T23:51:42.025Z,102355.28
2019-02-11T23:54:14.316Z,102346.66
2019-02-11T23:56:44.677Z,102357.20
2019-02-11T23:59:13.691Z,102356.69
